sensor_id;sensor_type;location;lat;lon;timestamp;P1;durP1;ratioP1;P2;durP2;ratioP2
55216;SDS011;41086;46.736;15.666;2022-09-09T00:00:14;13.00;;;5.00;;
55216;SDS011;41086;46.736;15.666;2022-09-09T00:06:08;13.50;;;4.85;;
55216;SDS011;41086;46.736;15.666;2022-09-09T00:11:31;16.45;;;5.80;;
55216;SDS011;41086;46.736;15.666;2022-09-09T00:17:05;19.40;;;5.13;;
55216;SDS011;41086;46.736;15.666;2022-09-09T00:19:38;15.48;;;5.38;;
55216;SDS011;41086;46.736;15.666;2022-09-09T00:24:44;21.42;;;5.18;;
55216;SDS011;41086;46.736;15.666;2022-09-09T00:27:34;14.85;;;4.70;;
55216;SDS011;41086;46.736;15.666;2022-09-09T00:32:47;11.82;;;5.60;;
55216;SDS011;41086;46.736;15.666;2022-09-09T00:35:21;13.65;;;5.38;;
55216;SDS011;41086;46.736;15.666;2022-09-09T00:37:52;17.13;;;5.65;;
55216;SDS011;41086;46.736;15.666;2022-09-09T00:43:02;7.28;;;5.07;;
55216;SDS011;41086;46.736;15.666;2022-09-09T00:45:56;15.30;;;5.47;;
55216;SDS011;41086;46.736;15.666;2022-09-09T00:51:27;14.80;;;5.55;;
55216;SDS011;41086;46.736;15.666;2022-09-09T00:57:00;16.13;;;6.10;;
55216;SDS011;41086;46.736;15.666;2022-09-09T00:59:56;15.98;;;5.88;;
55216;SDS011;41086;46.736;15.666;2022-09-09T01:11:05;19.83;;;5.40;;
55216;SDS011;41086;46.736;15.666;2022-09-09T01:13:43;21.58;;;5.28;;
55216;SDS011;41086;46.736;15.666;2022-09-09T01:16:14;16.38;;;6.82;;
55216;SDS011;41086;46.736;15.666;2022-09-09T01:18:44;14.88;;;5.03;;
55216;SDS011;41086;46.736;15.666;2022-09-09T01:21:22;13.23;;;5.03;;
55216;SDS011;41086;46.736;15.666;2022-09-09T01:26:39;19.95;;;5.55;;
55216;SDS011;41086;46.736;15.666;2022-09-09T01:29:17;14.27;;;5.05;;
55216;SDS011;41086;46.736;15.666;2022-09-09T01:32:00;22.65;;;5.00;;
55216;SDS011;41086;46.736;15.666;2022-09-09T01:34:31;10.80;;;5.43;;
55216;SDS011;41086;46.736;15.666;2022-09-09T01:37:05;12.52;;;5.38;;
55216;SDS011;41086;46.736;15.666;2022-09-09T01:39:36;14.68;;;4.85;;
55216;SDS011;41086;46.736;15.666;2022-09-09T01:42:09;10.38;;;4.60;;
55216;SDS011;41086;46.736;15.666;2022-09-09T01:44:40;14.27;;;5.60;;
55216;SDS011;41086;46.736;15.666;2022-09-09T01:47:07;14.25;;;6.18;;
55216;SDS011;41086;46.736;15.666;2022-09-09T01:49:42;13.70;;;4.97;;
55216;SDS011;41086;46.736;15.666;2022-09-09T01:52:18;30.38;;;6.22;;
55216;SDS011;41086;46.736;15.666;2022-09-09T01:54:45;20.67;;;4.82;;
55216;SDS011;41086;46.736;15.666;2022-09-09T01:57:38;21.92;;;6.22;;
55216;SDS011;41086;46.736;15.666;2022-09-09T02:00:36;14.50;;;5.22;;
55216;SDS011;41086;46.736;15.666;2022-09-09T02:03:26;11.38;;;4.78;;
55216;SDS011;41086;46.736;15.666;2022-09-09T02:11:11;13.07;;;5.38;;
55216;SDS011;41086;46.736;15.666;2022-09-09T02:14:08;14.70;;;6.18;;
55216;SDS011;41086;46.736;15.666;2022-09-09T02:16:43;18.42;;;5.85;;
55216;SDS011;41086;46.736;15.666;2022-09-09T02:19:15;12.40;;;4.80;;
55216;SDS011;41086;46.736;15.666;2022-09-09T02:22:18;7.45;;;5.45;;
55216;SDS011;41086;46.736;15.666;2022-09-09T02:24:48;16.83;;;5.05;;
55216;SDS011;41086;46.736;15.666;2022-09-09T02:27:24;19.05;;;5.68;;
55216;SDS011;41086;46.736;15.666;2022-09-09T02:29:51;26.23;;;6.50;;
55216;SDS011;41086;46.736;15.666;2022-09-09T02:32:34;24.33;;;5.43;;
55216;SDS011;41086;46.736;15.666;2022-09-09T02:35:06;13.50;;;6.15;;
55216;SDS011;41086;46.736;15.666;2022-09-09T02:37:39;21.80;;;6.82;;
55216;SDS011;41086;46.736;15.666;2022-09-09T02:40:09;14.10;;;5.22;;
55216;SDS011;41086;46.736;15.666;2022-09-09T02:42:45;19.85;;;5.60;;
55216;SDS011;41086;46.736;15.666;2022-09-09T02:45:18;19.85;;;5.43;;
55216;SDS011;41086;46.736;15.666;2022-09-09T02:48:09;20.13;;;5.63;;
55216;SDS011;41086;46.736;15.666;2022-09-09T02:51:07;17.88;;;4.90;;
55216;SDS011;41086;46.736;15.666;2022-09-09T02:56:24;11.18;;;4.82;;
55216;SDS011;41086;46.736;15.666;2022-09-09T02:58:56;19.15;;;4.07;;
55216;SDS011;41086;46.736;15.666;2022-09-09T03:01:24;11.65;;;4.35;;
55216;SDS011;41086;46.736;15.666;2022-09-09T03:03:51;10.73;;;4.55;;
55216;SDS011;41086;46.736;15.666;2022-09-09T03:06:18;10.88;;;4.65;;
55216;SDS011;41086;46.736;15.666;2022-09-09T03:08:50;11.27;;;4.47;;
55216;SDS011;41086;46.736;15.666;2022-09-09T03:11:23;9.90;;;4.40;;
55216;SDS011;41086;46.736;15.666;2022-09-09T03:13:50;9.52;;;3.80;;
55216;SDS011;41086;46.736;15.666;2022-09-09T03:16:18;12.02;;;4.20;;
55216;SDS011;41086;46.736;15.666;2022-09-09T03:18:48;10.10;;;4.28;;
55216;SDS011;41086;46.736;15.666;2022-09-09T03:21:15;8.15;;;4.07;;
55216;SDS011;41086;46.736;15.666;2022-09-09T03:23:43;7.70;;;4.38;;
55216;SDS011;41086;46.736;15.666;2022-09-09T03:26:11;8.00;;;4.43;;
55216;SDS011;41086;46.736;15.666;2022-09-09T03:28:42;10.80;;;4.00;;
55216;SDS011;41086;46.736;15.666;2022-09-09T03:31:10;10.38;;;4.40;;
55216;SDS011;41086;46.736;15.666;2022-09-09T03:33:39;16.17;;;4.65;;
55216;SDS011;41086;46.736;15.666;2022-09-09T03:36:10;13.95;;;4.50;;
55216;SDS011;41086;46.736;15.666;2022-09-09T03:38:37;8.63;;;4.78;;
55216;SDS011;41086;46.736;15.666;2022-09-09T03:41:05;13.52;;;5.75;;
55216;SDS011;41086;46.736;15.666;2022-09-09T03:43:33;8.57;;;5.38;;
55216;SDS011;41086;46.736;15.666;2022-09-09T03:46:00;9.75;;;5.28;;
55216;SDS011;41086;46.736;15.666;2022-09-09T03:48:28;9.45;;;4.63;;
55216;SDS011;41086;46.736;15.666;2022-09-09T03:50:55;11.48;;;4.72;;
55216;SDS011;41086;46.736;15.666;2022-09-09T03:53:24;11.98;;;5.40;;
55216;SDS011;41086;46.736;15.666;2022-09-09T03:55:53;15.93;;;5.32;;
55216;SDS011;41086;46.736;15.666;2022-09-09T03:58:23;15.10;;;5.10;;
55216;SDS011;41086;46.736;15.666;2022-09-09T04:00:55;9.63;;;4.40;;
55216;SDS011;41086;46.736;15.666;2022-09-09T04:03:26;17.33;;;4.85;;
55216;SDS011;41086;46.736;15.666;2022-09-09T04:05:55;16.23;;;4.47;;
55216;SDS011;41086;46.736;15.666;2022-09-09T04:08:24;25.63;;;5.60;;
55216;SDS011;41086;46.736;15.666;2022-09-09T04:10:53;9.45;;;3.58;;
55216;SDS011;41086;46.736;15.666;2022-09-09T04:13:26;12.32;;;3.78;;
55216;SDS011;41086;46.736;15.666;2022-09-09T04:15:55;12.15;;;3.25;;
55216;SDS011;41086;46.736;15.666;2022-09-09T04:18:25;15.18;;;5.22;;
55216;SDS011;41086;46.736;15.666;2022-09-09T04:20:53;7.68;;;3.13;;
55216;SDS011;41086;46.736;15.666;2022-09-09T04:23:23;11.48;;;3.78;;
55216;SDS011;41086;46.736;15.666;2022-09-09T04:25:52;7.15;;;3.55;;
55216;SDS011;41086;46.736;15.666;2022-09-09T04:28:21;12.43;;;4.25;;
55216;SDS011;41086;46.736;15.666;2022-09-09T04:30:50;14.15;;;4.38;;
55216;SDS011;41086;46.736;15.666;2022-09-09T04:33:17;24.00;;;5.07;;
55216;SDS011;41086;46.736;15.666;2022-09-09T04:35:45;13.32;;;3.70;;
55216;SDS011;41086;46.736;15.666;2022-09-09T04:38:14;11.23;;;4.22;;
55216;SDS011;41086;46.736;15.666;2022-09-09T04:40:45;13.00;;;3.90;;
55216;SDS011;41086;46.736;15.666;2022-09-09T04:43:13;10.90;;;3.25;;
55216;SDS011;41086;46.736;15.666;2022-09-09T04:45:43;6.13;;;3.13;;
55216;SDS011;41086;46.736;15.666;2022-09-09T04:48:13;9.73;;;3.53;;
55216;SDS011;41086;46.736;15.666;2022-09-09T04:53:10;11.52;;;3.55;;
55216;SDS011;41086;46.736;15.666;2022-09-09T04:55:37;10.63;;;4.45;;
55216;SDS011;41086;46.736;15.666;2022-09-09T04:58:05;6.80;;;4.28;;
55216;SDS011;41086;46.736;15.666;2022-09-09T05:00:34;11.73;;;4.32;;
55216;SDS011;41086;46.736;15.666;2022-09-09T05:03:05;12.73;;;4.22;;
55216;SDS011;41086;46.736;15.666;2022-09-09T05:05:33;17.77;;;4.07;;
55216;SDS011;41086;46.736;15.666;2022-09-09T05:08:01;11.32;;;3.80;;
55216;SDS011;41086;46.736;15.666;2022-09-09T05:10:31;13.05;;;5.22;;
55216;SDS011;41086;46.736;15.666;2022-09-09T05:12:58;8.70;;;3.90;;
55216;SDS011;41086;46.736;15.666;2022-09-09T05:15:28;9.13;;;3.30;;
55216;SDS011;41086;46.736;15.666;2022-09-09T05:17:59;10.95;;;3.45;;
55216;SDS011;41086;46.736;15.666;2022-09-09T05:23:00;12.48;;;6.28;;
55216;SDS011;41086;46.736;15.666;2022-09-09T05:25:31;7.85;;;3.25;;
55216;SDS011;41086;46.736;15.666;2022-09-09T05:27:58;12.60;;;4.30;;
55216;SDS011;41086;46.736;15.666;2022-09-09T05:30:28;12.10;;;3.55;;
55216;SDS011;41086;46.736;15.666;2022-09-09T05:32:56;8.88;;;3.83;;
55216;SDS011;41086;46.736;15.666;2022-09-09T05:35:24;8.52;;;3.28;;
55216;SDS011;41086;46.736;15.666;2022-09-09T05:37:51;11.65;;;3.38;;
55216;SDS011;41086;46.736;15.666;2022-09-09T05:40:19;10.57;;;4.00;;
55216;SDS011;41086;46.736;15.666;2022-09-09T05:42:48;9.45;;;4.20;;
55216;SDS011;41086;46.736;15.666;2022-09-09T05:45:15;7.82;;;3.08;;
55216;SDS011;41086;46.736;15.666;2022-09-09T05:47:42;11.43;;;3.53;;
55216;SDS011;41086;46.736;15.666;2022-09-09T05:50:12;8.10;;;3.25;;
55216;SDS011;41086;46.736;15.666;2022-09-09T05:52:40;8.10;;;2.55;;
55216;SDS011;41086;46.736;15.666;2022-09-09T05:55:17;8.60;;;3.15;;
55216;SDS011;41086;46.736;15.666;2022-09-09T05:57:47;9.48;;;3.45;;
55216;SDS011;41086;46.736;15.666;2022-09-09T06:00:15;5.10;;;2.47;;
55216;SDS011;41086;46.736;15.666;2022-09-09T06:02:50;6.75;;;2.53;;
55216;SDS011;41086;46.736;15.666;2022-09-09T06:05:20;8.00;;;2.75;;
55216;SDS011;41086;46.736;15.666;2022-09-09T06:07:51;9.02;;;3.17;;
55216;SDS011;41086;46.736;15.666;2022-09-09T06:10:20;9.32;;;2.55;;
55216;SDS011;41086;46.736;15.666;2022-09-09T06:12:47;6.28;;;2.80;;
55216;SDS011;41086;46.736;15.666;2022-09-09T06:15:13;5.95;;;3.10;;
55216;SDS011;41086;46.736;15.666;2022-09-09T06:17:40;7.60;;;2.72;;
55216;SDS011;41086;46.736;15.666;2022-09-09T06:20:08;6.25;;;2.92;;
55216;SDS011;41086;46.736;15.666;2022-09-09T06:22:35;3.80;;;2.67;;
55216;SDS011;41086;46.736;15.666;2022-09-09T06:25:02;10.38;;;2.35;;
55216;SDS011;41086;46.736;15.666;2022-09-09T06:29:56;6.75;;;2.60;;
55216;SDS011;41086;46.736;15.666;2022-09-09T06:32:23;4.85;;;2.25;;
55216;SDS011;41086;46.736;15.666;2022-09-09T06:34:50;5.82;;;2.55;;
55216;SDS011;41086;46.736;15.666;2022-09-09T06:37:17;6.47;;;2.42;;
55216;SDS011;41086;46.736;15.666;2022-09-09T06:39:47;2.97;;;2.20;;
55216;SDS011;41086;46.736;15.666;2022-09-09T06:42:15;8.80;;;2.25;;
55216;SDS011;41086;46.736;15.666;2022-09-09T06:44:47;6.00;;;2.85;;
55216;SDS011;41086;46.736;15.666;2022-09-09T06:47:34;9.57;;;2.20;;
55216;SDS011;41086;46.736;15.666;2022-09-09T06:50:02;4.43;;;1.85;;
55216;SDS011;41086;46.736;15.666;2022-09-09T06:52:32;3.20;;;1.95;;
55216;SDS011;41086;46.736;15.666;2022-09-09T06:55:00;4.40;;;2.20;;
55216;SDS011;41086;46.736;15.666;2022-09-09T06:57:29;6.15;;;2.30;;
55216;SDS011;41086;46.736;15.666;2022-09-09T07:00:10;7.65;;;2.10;;
55216;SDS011;41086;46.736;15.666;2022-09-09T07:02:39;4.88;;;2.17;;
55216;SDS011;41086;46.736;15.666;2022-09-09T07:05:09;3.03;;;1.75;;
55216;SDS011;41086;46.736;15.666;2022-09-09T07:07:39;6.07;;;2.08;;
55216;SDS011;41086;46.736;15.666;2022-09-09T07:10:07;6.25;;;2.08;;
55216;SDS011;41086;46.736;15.666;2022-09-09T07:12:36;2.83;;;2.00;;
55216;SDS011;41086;46.736;15.666;2022-09-09T07:15:04;4.20;;;2.58;;
55216;SDS011;41086;46.736;15.666;2022-09-09T07:17:32;4.85;;;2.10;;
55216;SDS011;41086;46.736;15.666;2022-09-09T07:20:02;6.20;;;2.33;;
55216;SDS011;41086;46.736;15.666;2022-09-09T07:22:31;4.38;;;2.40;;
55216;SDS011;41086;46.736;15.666;2022-09-09T07:24:59;6.70;;;2.47;;
55216;SDS011;41086;46.736;15.666;2022-09-09T07:27:28;6.57;;;2.40;;
55216;SDS011;41086;46.736;15.666;2022-09-09T07:29:57;4.38;;;2.53;;
55216;SDS011;41086;46.736;15.666;2022-09-09T07:32:24;7.50;;;2.95;;
55216;SDS011;41086;46.736;15.666;2022-09-09T07:34:51;7.07;;;3.30;;
55216;SDS011;41086;46.736;15.666;2022-09-09T07:37:19;7.75;;;3.17;;
55216;SDS011;41086;46.736;15.666;2022-09-09T07:39:48;6.85;;;2.30;;
55216;SDS011;41086;46.736;15.666;2022-09-09T07:42:17;4.28;;;1.92;;
55216;SDS011;41086;46.736;15.666;2022-09-09T07:44:44;15.10;;;2.63;;
55216;SDS011;41086;46.736;15.666;2022-09-09T07:47:14;10.43;;;2.90;;
55216;SDS011;41086;46.736;15.666;2022-09-09T07:49:46;10.00;;;2.40;;
55216;SDS011;41086;46.736;15.666;2022-09-09T07:52:21;5.53;;;2.50;;
55216;SDS011;41086;46.736;15.666;2022-09-09T07:54:52;4.80;;;2.33;;
55216;SDS011;41086;46.736;15.666;2022-09-09T07:57:19;5.22;;;2.20;;
55216;SDS011;41086;46.736;15.666;2022-09-09T07:59:49;4.63;;;2.60;;
55216;SDS011;41086;46.736;15.666;2022-09-09T08:02:17;4.22;;;2.60;;
55216;SDS011;41086;46.736;15.666;2022-09-09T08:07:14;4.53;;;2.45;;
55216;SDS011;41086;46.736;15.666;2022-09-09T08:09:48;7.10;;;2.85;;
55216;SDS011;41086;46.736;15.666;2022-09-09T08:12:24;6.70;;;3.72;;
55216;SDS011;41086;46.736;15.666;2022-09-09T08:14:51;5.15;;;2.47;;
55216;SDS011;41086;46.736;15.666;2022-09-09T08:17:23;5.85;;;2.63;;
55216;SDS011;41086;46.736;15.666;2022-09-09T08:22:21;6.40;;;2.60;;
55216;SDS011;41086;46.736;15.666;2022-09-09T08:24:49;7.43;;;2.28;;
55216;SDS011;41086;46.736;15.666;2022-09-09T08:27:16;9.65;;;3.03;;
55216;SDS011;41086;46.736;15.666;2022-09-09T08:29:43;8.10;;;2.10;;
55216;SDS011;41086;46.736;15.666;2022-09-09T08:32:10;9.48;;;2.15;;
55216;SDS011;41086;46.736;15.666;2022-09-09T08:34:39;5.20;;;2.22;;
55216;SDS011;41086;46.736;15.666;2022-09-09T08:37:17;3.83;;;2.13;;
55216;SDS011;41086;46.736;15.666;2022-09-09T08:39:45;5.53;;;2.20;;
55216;SDS011;41086;46.736;15.666;2022-09-09T08:42:24;5.53;;;2.03;;
55216;SDS011;41086;46.736;15.666;2022-09-09T08:48:13;5.68;;;2.42;;
55216;SDS011;41086;46.736;15.666;2022-09-09T08:50:49;6.70;;;1.90;;
55216;SDS011;41086;46.736;15.666;2022-09-09T08:53:24;6.25;;;2.42;;
55216;SDS011;41086;46.736;15.666;2022-09-09T08:56:09;7.30;;;2.20;;
55216;SDS011;41086;46.736;15.666;2022-09-09T08:58:49;2.83;;;1.90;;
55216;SDS011;41086;46.736;15.666;2022-09-09T09:02:05;3.47;;;1.80;;
55216;SDS011;41086;46.736;15.666;2022-09-09T09:18:26;4.72;;;2.20;;
55216;SDS011;41086;46.736;15.666;2022-09-09T09:20:59;3.28;;;2.05;;
55216;SDS011;41086;46.736;15.666;2022-09-09T09:23:32;8.65;;;2.30;;
55216;SDS011;41086;46.736;15.666;2022-09-09T09:26:09;6.18;;;2.47;;
55216;SDS011;41086;46.736;15.666;2022-09-09T09:28:40;3.17;;;1.98;;
55216;SDS011;41086;46.736;15.666;2022-09-09T09:31:14;5.18;;;1.95;;
55216;SDS011;41086;46.736;15.666;2022-09-09T09:36:24;3.47;;;1.85;;
55216;SDS011;41086;46.736;15.666;2022-09-09T09:39:02;3.03;;;1.42;;
55216;SDS011;41086;46.736;15.666;2022-09-09T09:41:52;4.50;;;1.27;;
55216;SDS011;41086;46.736;15.666;2022-09-09T09:44:28;4.55;;;1.25;;
55216;SDS011;41086;46.736;15.666;2022-09-09T09:47:16;3.83;;;1.30;;
55216;SDS011;41086;46.736;15.666;2022-09-09T09:49:56;3.47;;;1.40;;
55216;SDS011;41086;46.736;15.666;2022-09-09T09:52:33;5.38;;;1.67;;
55216;SDS011;41086;46.736;15.666;2022-09-09T09:55:04;3.05;;;1.40;;
55216;SDS011;41086;46.736;15.666;2022-09-09T09:57:41;4.80;;;1.52;;
55216;SDS011;41086;46.736;15.666;2022-09-09T10:00:14;2.58;;;1.58;;
55216;SDS011;41086;46.736;15.666;2022-09-09T10:02:50;2.80;;;1.00;;
55216;SDS011;41086;46.736;15.666;2022-09-09T10:05:24;2.00;;;1.23;;
55216;SDS011;41086;46.736;15.666;2022-09-09T10:08:13;2.10;;;0.80;;
55216;SDS011;41086;46.736;15.666;2022-09-09T10:13:53;4.68;;;1.08;;
55216;SDS011;41086;46.736;15.666;2022-09-09T10:19:03;2.88;;;1.08;;
55216;SDS011;41086;46.736;15.666;2022-09-09T10:24:51;2.08;;;0.60;;
55216;SDS011;41086;46.736;15.666;2022-09-09T10:27:51;1.83;;;0.88;;
55216;SDS011;41086;46.736;15.666;2022-09-09T10:33:08;3.58;;;1.15;;
55216;SDS011;41086;46.736;15.666;2022-09-09T10:41:40;2.00;;;0.90;;
55216;SDS011;41086;46.736;15.666;2022-09-09T10:57:41;1.90;;;1.00;;
55216;SDS011;41086;46.736;15.666;2022-09-09T11:02:55;1.25;;;0.75;;
55216;SDS011;41086;46.736;15.666;2022-09-09T11:05:33;3.95;;;1.20;;
55216;SDS011;41086;46.736;15.666;2022-09-09T11:08:12;5.70;;;1.55;;
55216;SDS011;41086;46.736;15.666;2022-09-09T11:13:35;2.60;;;1.20;;
55216;SDS011;41086;46.736;15.666;2022-09-09T11:18:45;4.45;;;1.23;;
55216;SDS011;41086;46.736;15.666;2022-09-09T11:21:17;3.78;;;1.55;;
55216;SDS011;41086;46.736;15.666;2022-09-09T11:26:47;6.93;;;1.25;;
55216;SDS011;41086;46.736;15.666;2022-09-09T11:31:46;1.15;;;0.93;;
55216;SDS011;41086;46.736;15.666;2022-09-09T11:35:30;1.40;;;0.60;;
55216;SDS011;41086;46.736;15.666;2022-09-09T11:37:31;2.80;;;1.00;;
55216;SDS011;41086;46.736;15.666;2022-09-09T11:43:01;3.10;;;1.10;;
55216;SDS011;41086;46.736;15.666;2022-09-09T11:45:34;2.17;;;0.90;;
55216;SDS011;41086;46.736;15.666;2022-09-09T11:48:03;2.33;;;1.35;;
55216;SDS011;41086;46.736;15.666;2022-09-09T11:50:36;3.50;;;0.90;;
55216;SDS011;41086;46.736;15.666;2022-09-09T11:55:40;3.33;;;1.13;;
55216;SDS011;41086;46.736;15.666;2022-09-09T12:00:38;2.85;;;1.08;;
55216;SDS011;41086;46.736;15.666;2022-09-09T12:03:31;2.22;;;0.85;;
55216;SDS011;41086;46.736;15.666;2022-09-09T12:06:12;1.60;;;0.90;;
55216;SDS011;41086;46.736;15.666;2022-09-09T12:08:43;3.05;;;0.90;;
55216;SDS011;41086;46.736;15.666;2022-09-09T12:11:23;2.78;;;1.15;;
55216;SDS011;41086;46.736;15.666;2022-09-09T12:13:53;3.15;;;0.98;;
55216;SDS011;41086;46.736;15.666;2022-09-09T12:16:28;6.13;;;1.17;;
55216;SDS011;41086;46.736;15.666;2022-09-09T12:19:05;2.05;;;1.25;;
55216;SDS011;41086;46.736;15.666;2022-09-09T12:24:53;1.88;;;0.90;;
55216;SDS011;41086;46.736;15.666;2022-09-09T12:30:40;5.78;;;1.30;;
55216;SDS011;41086;46.736;15.666;2022-09-09T12:33:16;4.22;;;1.10;;
55216;SDS011;41086;46.736;15.666;2022-09-09T12:35:47;2.13;;;1.20;;
55216;SDS011;41086;46.736;15.666;2022-09-09T12:38:30;1.50;;;1.00;;
55216;SDS011;41086;46.736;15.666;2022-09-09T12:41:00;4.35;;;1.08;;
55216;SDS011;41086;46.736;15.666;2022-09-09T12:43:27;4.22;;;1.10;;
55216;SDS011;41086;46.736;15.666;2022-09-09T12:45:56;3.05;;;1.15;;
55216;SDS011;41086;46.736;15.666;2022-09-09T12:48:30;4.07;;;1.10;;
55216;SDS011;41086;46.736;15.666;2022-09-09T12:51:01;3.22;;;1.50;;
55216;SDS011;41086;46.736;15.666;2022-09-09T12:53:35;2.45;;;0.90;;
55216;SDS011;41086;46.736;15.666;2022-09-09T12:56:07;3.80;;;1.20;;
55216;SDS011;41086;46.736;15.666;2022-09-09T12:58:45;3.80;;;1.02;;
55216;SDS011;41086;46.736;15.666;2022-09-09T13:01:54;6.70;;;1.00;;
55216;SDS011;41086;46.736;15.666;2022-09-09T13:04:19;3.47;;;0.90;;
55216;SDS011;41086;46.736;15.666;2022-09-09T13:06:47;3.45;;;0.98;;
55216;SDS011;41086;46.736;15.666;2022-09-09T13:09:13;1.20;;;0.93;;
55216;SDS011;41086;46.736;15.666;2022-09-09T13:11:42;3.95;;;1.20;;
55216;SDS011;41086;46.736;15.666;2022-09-09T13:14:16;2.53;;;1.00;;
55216;SDS011;41086;46.736;15.666;2022-09-09T13:16:54;2.03;;;1.23;;
55216;SDS011;41086;46.736;15.666;2022-09-09T13:19:23;2.92;;;1.30;;
55216;SDS011;41086;46.736;15.666;2022-09-09T13:21:54;2.80;;;1.10;;
55216;SDS011;41086;46.736;15.666;2022-09-09T13:26:54;3.17;;;1.70;;
55216;SDS011;41086;46.736;15.666;2022-09-09T13:29:23;5.78;;;1.60;;
55216;SDS011;41086;46.736;15.666;2022-09-09T13:31:50;2.65;;;1.58;;
55216;SDS011;41086;46.736;15.666;2022-09-09T13:34:30;2.00;;;1.20;;
55216;SDS011;41086;46.736;15.666;2022-09-09T13:36:59;4.57;;;1.20;;
55216;SDS011;41086;46.736;15.666;2022-09-09T13:39:32;3.17;;;1.30;;
55216;SDS011;41086;46.736;15.666;2022-09-09T13:42:01;5.25;;;1.13;;
55216;SDS011;41086;46.736;15.666;2022-09-09T13:44:38;3.40;;;1.27;;
55216;SDS011;41086;46.736;15.666;2022-09-09T13:49:40;5.68;;;2.38;;
55216;SDS011;41086;46.736;15.666;2022-09-09T13:52:14;6.28;;;1.67;;
55216;SDS011;41086;46.736;15.666;2022-09-09T13:54:46;2.03;;;1.23;;
55216;SDS011;41086;46.736;15.666;2022-09-09T13:57:16;2.92;;;1.42;;
55216;SDS011;41086;46.736;15.666;2022-09-09T13:59:45;3.90;;;1.40;;
55216;SDS011;41086;46.736;15.666;2022-09-09T14:02:30;4.47;;;1.42;;
55216;SDS011;41086;46.736;15.666;2022-09-09T14:04:57;5.60;;;2.10;;
55216;SDS011;41086;46.736;15.666;2022-09-09T14:09:51;6.85;;;2.05;;
55216;SDS011;41086;46.736;15.666;2022-09-09T14:12:18;4.05;;;1.77;;
55216;SDS011;41086;46.736;15.666;2022-09-09T14:14:46;2.65;;;1.50;;
55216;SDS011;41086;46.736;15.666;2022-09-09T14:19:40;5.78;;;1.27;;
55216;SDS011;41086;46.736;15.666;2022-09-09T14:24:34;12.65;;;3.40;;
55216;SDS011;41086;46.736;15.666;2022-09-09T14:27:01;4.20;;;1.70;;
55216;SDS011;41086;46.736;15.666;2022-09-09T14:29:28;3.38;;;1.80;;
55216;SDS011;41086;46.736;15.666;2022-09-09T14:31:55;4.82;;;1.85;;
55216;SDS011;41086;46.736;15.666;2022-09-09T14:36:48;3.97;;;2.53;;
55216;SDS011;41086;46.736;15.666;2022-09-09T14:39:15;9.35;;;2.38;;
55216;SDS011;41086;46.736;15.666;2022-09-09T14:44:09;6.65;;;2.05;;
55216;SDS011;41086;46.736;15.666;2022-09-09T14:46:36;5.45;;;2.33;;
55216;SDS011;41086;46.736;15.666;2022-09-09T14:51:31;2.10;;;1.40;;
55216;SDS011;41086;46.736;15.666;2022-09-09T14:56:26;2.65;;;1.58;;
55216;SDS011;41086;46.736;15.666;2022-09-09T14:58:56;4.13;;;1.60;;
55216;SDS011;41086;46.736;15.666;2022-09-09T15:01:25;4.20;;;1.63;;
55216;SDS011;41086;46.736;15.666;2022-09-09T15:03:56;7.05;;;3.83;;
55216;SDS011;41086;46.736;15.666;2022-09-09T15:06:25;3.75;;;2.33;;
55216;SDS011;41086;46.736;15.666;2022-09-09T15:08:55;2.90;;;1.80;;
55216;SDS011;41086;46.736;15.666;2022-09-09T15:11:25;2.50;;;1.70;;
55216;SDS011;41086;46.736;15.666;2022-09-09T15:13:54;4.15;;;1.75;;
55216;SDS011;41086;46.736;15.666;2022-09-09T15:16:22;3.80;;;1.60;;
55216;SDS011;41086;46.736;15.666;2022-09-09T15:18:51;4.53;;;1.75;;
55216;SDS011;41086;46.736;15.666;2022-09-09T15:21:22;3.50;;;1.60;;
55216;SDS011;41086;46.736;15.666;2022-09-09T15:23:51;6.95;;;1.55;;
55216;SDS011;41086;46.736;15.666;2022-09-09T15:26:18;5.30;;;1.38;;
55216;SDS011;41086;46.736;15.666;2022-09-09T15:28:45;2.45;;;1.20;;
55216;SDS011;41086;46.736;15.666;2022-09-09T15:31:15;1.92;;;1.25;;
55216;SDS011;41086;46.736;15.666;2022-09-09T15:33:48;3.15;;;1.50;;
55216;SDS011;41086;46.736;15.666;2022-09-09T15:36:22;2.72;;;1.55;;
55216;SDS011;41086;46.736;15.666;2022-09-09T15:38:51;5.45;;;1.75;;
55216;SDS011;41086;46.736;15.666;2022-09-09T15:41:19;6.07;;;1.40;;
55216;SDS011;41086;46.736;15.666;2022-09-09T15:43:48;2.42;;;1.48;;
55216;SDS011;41086;46.736;15.666;2022-09-09T15:51:14;2.88;;;1.25;;
55216;SDS011;41086;46.736;15.666;2022-09-09T15:54:01;3.28;;;1.40;;
55216;SDS011;41086;46.736;15.666;2022-09-09T15:56:28;2.63;;;1.50;;
55216;SDS011;41086;46.736;15.666;2022-09-09T15:58:59;4.22;;;1.52;;
55216;SDS011;41086;46.736;15.666;2022-09-09T16:01:26;3.38;;;1.40;;
55216;SDS011;41086;46.736;15.666;2022-09-09T16:03:53;3.28;;;1.58;;
55216;SDS011;41086;46.736;15.666;2022-09-09T16:06:21;7.82;;;1.50;;
55216;SDS011;41086;46.736;15.666;2022-09-09T16:08:49;3.50;;;1.33;;
55216;SDS011;41086;46.736;15.666;2022-09-09T16:11:18;2.95;;;1.25;;
55216;SDS011;41086;46.736;15.666;2022-09-09T16:13:49;2.55;;;1.40;;
55216;SDS011;41086;46.736;15.666;2022-09-09T16:16:18;3.33;;;1.60;;
55216;SDS011;41086;46.736;15.666;2022-09-09T16:18:49;3.65;;;1.60;;
55216;SDS011;41086;46.736;15.666;2022-09-09T16:21:23;4.40;;;1.50;;
55216;SDS011;41086;46.736;15.666;2022-09-09T16:23:51;3.47;;;1.58;;
55216;SDS011;41086;46.736;15.666;2022-09-09T16:26:19;3.90;;;1.75;;
55216;SDS011;41086;46.736;15.666;2022-09-09T16:28:47;3.83;;;1.60;;
55216;SDS011;41086;46.736;15.666;2022-09-09T16:31:15;2.78;;;1.58;;
55216;SDS011;41086;46.736;15.666;2022-09-09T16:33:44;6.55;;;1.90;;
55216;SDS011;41086;46.736;15.666;2022-09-09T16:36:13;4.63;;;1.70;;
55216;SDS011;41086;46.736;15.666;2022-09-09T16:38:42;3.30;;;1.67;;
55216;SDS011;41086;46.736;15.666;2022-09-09T16:41:09;3.63;;;1.45;;
55216;SDS011;41086;46.736;15.666;2022-09-09T16:43:37;4.60;;;1.90;;
55216;SDS011;41086;46.736;15.666;2022-09-09T16:46:13;2.28;;;1.40;;
55216;SDS011;41086;46.736;15.666;2022-09-09T16:48:46;5.38;;;1.70;;
55216;SDS011;41086;46.736;15.666;2022-09-09T16:51:15;4.43;;;1.58;;
55216;SDS011;41086;46.736;15.666;2022-09-09T16:53:46;5.07;;;1.73;;
55216;SDS011;41086;46.736;15.666;2022-09-09T16:56:14;1.80;;;1.30;;
55216;SDS011;41086;46.736;15.666;2022-09-09T16:58:43;6.43;;;1.63;;
55216;SDS011;41086;46.736;15.666;2022-09-09T17:01:11;5.40;;;1.50;;
55216;SDS011;41086;46.736;15.666;2022-09-09T17:03:40;3.88;;;1.25;;
55216;SDS011;41086;46.736;15.666;2022-09-09T17:06:10;3.47;;;1.88;;
55216;SDS011;41086;46.736;15.666;2022-09-09T17:08:38;2.78;;;1.85;;
55216;SDS011;41086;46.736;15.666;2022-09-09T17:11:14;6.65;;;1.90;;
55216;SDS011;41086;46.736;15.666;2022-09-09T17:13:42;5.25;;;2.08;;
55216;SDS011;41086;46.736;15.666;2022-09-09T17:16:09;5.50;;;1.98;;
55216;SDS011;41086;46.736;15.666;2022-09-09T17:18:37;4.78;;;1.80;;
55216;SDS011;41086;46.736;15.666;2022-09-09T17:21:08;4.40;;;2.00;;
55216;SDS011;41086;46.736;15.666;2022-09-09T17:23:39;3.90;;;1.77;;
55216;SDS011;41086;46.736;15.666;2022-09-09T17:26:10;5.72;;;1.95;;
55216;SDS011;41086;46.736;15.666;2022-09-09T17:28:39;2.88;;;1.67;;
55216;SDS011;41086;46.736;15.666;2022-09-09T17:31:09;7.60;;;2.30;;
55216;SDS011;41086;46.736;15.666;2022-09-09T17:33:38;6.35;;;2.60;;
55216;SDS011;41086;46.736;15.666;2022-09-09T17:36:12;4.85;;;2.40;;
55216;SDS011;41086;46.736;15.666;2022-09-09T17:38:43;6.00;;;2.30;;